createdAt,value
2022-09-12T13:10:54.640Z,101364.69
2022-09-12T13:13:33.603Z,101364.78
2022-09-12T13:16:00.302Z,101362.47
2022-09-12T13:18:29.168Z,101356.78
2022-09-12T13:21:02.984Z,101352.50
2022-09-12T13:23:31.119Z,101351.75
2022-09-12T13:25:59.896Z,101353.69
2022-09-12T13:28:27.969Z,101364.38
2022-09-12T13:30:59.680Z,101354.63
2022-09-12T13:33:48.455Z,101355.59
2022-09-12T13:36:27.023Z,101349.91
2022-09-12T13:39:19.508Z,101339.88
2022-09-12T13:41:45.935Z,101337.38
2022-09-12T13:44:14.999Z,101345.69
2022-09-12T13:46:41.695Z,101336.31
2022-09-12T13:49:36.431Z,101335.66
2022-09-12T13:52:09.522Z,101328.50
2022-09-12T13:54:38.881Z,101322.28
2022-09-12T13:57:06.126Z,101322.50
2022-09-12T13:59:40.979Z,101332.09
2022-09-12T14:02:19.210Z,101327.47
2022-09-12T14:05:06.711Z,101319.00
2022-09-12T14:07:34.522Z,101311.72
2022-09-12T14:17:32.810Z,101301.84
2022-09-12T14:20:03.264Z,101294.56
2022-09-12T14:22:30.105Z,101286.75
2022-09-12T14:24:58.724Z,101286.44
2022-09-12T14:27:45.663Z,101288.47
2022-09-12T14:30:26.867Z,101288.34
2022-09-12T14:33:17.301Z,101286.97
2022-09-12T14:35:45.215Z,101285.91
2022-09-12T14:38:17.773Z,101281.03
2022-09-12T14:40:53.753Z,101265.22
2022-09-12T14:43:25.631Z,101275.06
2022-09-12T14:45:59.491Z,101273.63
2022-09-12T14:48:28.312Z,101270.19
2022-09-12T14:50:54.730Z,101262.22
2022-09-12T14:53:24.340Z,101263.31
2022-09-12T14:56:09.045Z,101263.03
2022-09-12T14:58:35.738Z,101259.50
2022-09-12T15:04:55.218Z,101245.38
2022-09-12T15:07:22.562Z,101243.47
2022-09-12T15:09:49.576Z,101239.44
2022-09-12T15:12:15.980Z,101240.78
2022-09-12T15:14:42.388Z,101236.25
2022-09-12T15:17:08.757Z,101239.19
2022-09-12T15:20:29.096Z,101244.41
2022-09-12T15:22:56.323Z,101243.59
2022-09-12T15:25:22.760Z,101241.28
2022-09-12T15:27:52.050Z,101226.41
2022-09-12T15:30:18.969Z,101233.75
2022-09-12T15:32:45.788Z,101230.28
2022-09-12T15:35:16.713Z,101234.13
2022-09-12T15:37:43.109Z,101226.53
2022-09-12T15:40:11.292Z,101229.88
2022-09-12T15:42:37.720Z,101237.53
2022-09-12T15:45:18.929Z,101231.13
2022-09-12T15:47:45.403Z,101228.91
2022-09-12T15:50:12.020Z,101224.88
2022-09-12T15:52:39.127Z,101221.66
2022-09-12T15:55:06.012Z,101225.47
2022-09-12T15:57:32.553Z,101215.88
2022-09-12T15:59:59.089Z,101229.44
2022-09-12T16:02:25.572Z,101218.44
2022-09-12T16:04:54.738Z,101216.94
2022-09-12T16:07:22.257Z,101211.13
2022-09-12T16:09:48.799Z,101215.91
2022-09-12T16:12:15.378Z,101212.97
2022-09-12T16:14:41.809Z,101209.31
2022-09-12T16:17:08.228Z,101209.88
2022-09-12T16:19:34.676Z,101211.81
2022-09-12T16:22:01.116Z,101206.47
2022-09-12T16:24:27.594Z,101202.97
2022-09-12T16:26:56.815Z,101199.88
2022-09-12T16:29:25.611Z,101204.88
2022-09-12T16:31:52.033Z,101189.97
2022-09-12T16:34:18.429Z,101183.72
2022-09-12T16:36:45.269Z,101173.25
2022-09-12T16:39:11.652Z,101175.47
2022-09-12T16:41:38.110Z,101162.28
2022-09-12T16:44:04.504Z,101161.31
2022-09-12T16:46:31.016Z,101156.34
2022-09-12T16:48:58.923Z,101151.28
2022-09-12T16:51:28.162Z,101146.94
2022-09-12T16:53:56.542Z,101148.75
2022-09-12T16:56:26.215Z,101146.56
2022-09-12T16:58:52.629Z,101142.13
2022-09-12T17:01:23.992Z,101138.16
2022-09-12T17:03:54.848Z,101149.16
2022-09-12T17:06:21.883Z,101145.31
2022-09-12T17:08:51.015Z,101136.72
2022-09-12T17:11:19.883Z,101142.47
2022-09-12T17:14:04.519Z,101136.09
2022-09-12T17:16:34.060Z,101133.44
2022-09-12T17:19:00.475Z,101126.31
2022-09-12T17:21:27.037Z,101124.91
2022-09-12T17:23:54.236Z,101120.94
2022-09-12T17:26:20.851Z,101129.88
2022-09-12T17:28:47.267Z,101121.50
2022-09-12T17:31:14.570Z,101116.81
2022-09-12T17:33:41.215Z,101104.94
2022-09-12T17:36:11.231Z,101117.81
2022-09-12T17:38:39.701Z,101105.94
2022-09-12T17:41:18.046Z,101106.19
2022-09-12T17:43:46.556Z,101110.13
2022-09-12T17:46:13.536Z,101097.97
2022-09-12T17:48:40.021Z,101097.94
2022-09-12T17:51:11.242Z,101101.09
2022-09-12T17:53:38.316Z,101098.38
2022-09-12T17:56:05.809Z,101098.03
2022-09-12T17:58:33.265Z,101092.34
2022-09-12T18:01:28.994Z,101089.56
2022-09-12T18:03:56.666Z,101092.44
2022-09-12T18:06:23.892Z,101094.91
2022-09-12T18:08:50.420Z,101083.03
2022-09-12T18:11:16.991Z,101090.09
2022-09-12T18:13:43.556Z,101086.13
2022-09-12T18:16:11.349Z,101081.63
2022-09-12T18:18:38.190Z,101086.03
2022-09-12T18:21:05.934Z,101083.47
2022-09-12T18:23:33.758Z,101080.00
2022-09-12T18:26:09.160Z,101070.91
2022-09-12T18:28:37.623Z,101080.22
2022-09-12T18:31:05.407Z,101077.97
2022-09-12T18:33:32.111Z,101079.63
2022-09-12T18:36:04.042Z,101076.09
2022-09-12T18:38:31.088Z,101070.91
2022-09-12T18:41:29.860Z,101068.41
2022-09-12T18:43:57.700Z,101068.88
2022-09-12T18:46:24.861Z,101069.91
2022-09-12T18:48:51.767Z,101068.34
2022-09-12T18:51:20.375Z,101061.41
2022-09-12T18:53:54.726Z,101055.19
2022-09-12T18:56:25.300Z,101057.34
2022-09-12T18:58:57.051Z,101062.38
2022-09-12T19:01:25.608Z,101051.41
2022-09-12T19:03:53.179Z,101053.47
2022-09-12T19:06:24.599Z,101048.06
2022-09-12T19:08:52.126Z,101055.16
2022-09-12T19:11:19.327Z,101049.59
2022-09-12T19:13:47.622Z,101061.31
2022-09-12T19:16:16.946Z,101061.13
2022-09-12T19:18:43.759Z,101053.63
2022-09-12T19:21:18.367Z,101052.53
2022-09-12T19:23:45.401Z,101045.63
2022-09-12T19:26:13.554Z,101047.66
2022-09-12T19:28:40.012Z,101060.34
2022-09-12T19:31:07.545Z,101057.78
2022-09-12T19:33:34.633Z,101050.16
2022-09-12T19:36:13.858Z,101053.84
2022-09-12T19:38:52.256Z,101044.06
2022-09-12T19:41:21.681Z,101054.69
2022-09-12T19:43:48.196Z,101043.28
2022-09-12T19:46:19.842Z,101043.56
2022-09-12T19:48:47.042Z,101047.00
2022-09-12T19:51:14.422Z,101043.97
2022-09-12T19:53:42.249Z,101043.69
2022-09-12T19:56:09.646Z,101030.84
2022-09-12T19:58:38.422Z,101025.91
2022-09-12T20:01:25.029Z,101027.09
2022-09-12T20:03:53.887Z,101022.88
2022-09-12T20:06:20.664Z,101009.97
2022-09-12T20:08:47.332Z,101013.50
2022-09-12T20:11:17.339Z,100999.00
2022-09-12T20:13:44.441Z,100987.22
2022-09-12T20:16:20.597Z,100986.31
2022-09-12T20:18:49.346Z,100977.66
2022-09-12T20:21:18.303Z,100974.50
2022-09-12T20:23:45.847Z,100963.69
2022-09-12T20:26:12.537Z,100956.91
2022-09-12T20:28:40.337Z,100965.38
2022-09-12T20:31:10.318Z,100964.31
2022-09-12T20:33:37.455Z,100957.81
2022-09-12T20:36:12.858Z,100967.47
2022-09-12T20:38:40.103Z,100971.19
2022-09-12T20:41:10.032Z,100963.56
2022-09-12T20:43:38.498Z,100971.44
2022-09-12T20:46:06.763Z,100966.13
2022-09-12T20:48:34.007Z,100973.97
2022-09-12T20:51:00.507Z,100965.78
2022-09-12T20:53:30.573Z,100966.38
2022-09-12T20:55:59.460Z,100957.25
2022-09-12T20:58:25.912Z,100949.75
2022-09-12T21:00:52.419Z,100939.16
2022-09-12T21:03:19.195Z,100939.97
2022-09-12T21:05:46.501Z,100928.53
2022-09-12T21:08:14.253Z,100943.94
2022-09-12T21:10:42.164Z,100928.94
2022-09-12T21:13:10.283Z,100919.06
2022-09-12T21:15:38.375Z,100924.63
2022-09-12T21:18:05.329Z,100924.06
2022-09-12T21:20:32.543Z,100912.56
2022-09-12T21:22:59.133Z,100923.06
2022-09-12T21:25:25.623Z,100914.56
2022-09-12T21:27:52.014Z,100910.75
2022-09-12T21:30:18.453Z,100911.97
2022-09-12T21:32:45.136Z,100913.66
2022-09-12T21:35:13.566Z,100917.44
2022-09-12T21:37:39.993Z,100910.00
2022-09-12T21:40:06.742Z,100903.38
2022-09-12T21:42:33.234Z,100901.91
2022-09-12T21:44:59.770Z,100896.88
2022-09-12T21:47:26.208Z,100879.19
2022-09-12T21:49:52.697Z,100897.03
2022-09-12T21:52:19.097Z,100899.00
2022-09-12T21:54:45.483Z,100895.53
2022-09-12T21:57:11.884Z,100894.56
2022-09-12T21:59:38.360Z,100899.97
2022-09-12T22:02:08.323Z,100883.41
2022-09-12T22:04:34.737Z,100897.47
2022-09-12T22:07:02.110Z,100888.63
2022-09-12T22:09:28.538Z,100888.38
2022-09-12T22:11:55.500Z,100873.78
2022-09-12T22:14:21.910Z,100870.41
2022-09-12T22:16:48.505Z,100869.81
2022-09-12T22:19:15.098Z,100866.41
2022-09-12T22:22:01.493Z,100873.53
2022-09-12T22:24:27.963Z,100864.94
2022-09-12T22:26:55.081Z,100866.50
2022-09-12T22:29:21.780Z,100859.25
2022-09-12T22:31:48.431Z,100867.84
2022-09-12T22:34:15.366Z,100862.13
2022-09-12T22:36:41.898Z,100868.50
2022-09-12T22:39:08.652Z,100868.13
2022-09-12T22:41:35.121Z,100855.81
2022-09-12T22:44:01.764Z,100845.66
2022-09-12T22:46:30.037Z,100849.19
2022-09-12T22:48:56.498Z,100835.31
2022-09-12T22:51:23.044Z,100842.56
2022-09-12T22:53:49.775Z,100832.97
2022-09-12T22:56:16.386Z,100837.69
2022-09-12T22:58:43.523Z,100832.06
2022-09-12T23:01:10.381Z,100832.81
2022-09-12T23:03:37.625Z,100832.75
2022-09-12T23:06:05.242Z,100826.59
2022-09-12T23:08:32.063Z,100827.56
2022-09-12T23:11:11.022Z,100829.59
2022-09-12T23:13:38.079Z,100819.03
2022-09-12T23:16:06.719Z,100819.44
2022-09-12T23:18:36.725Z,100823.38
2022-09-12T23:21:09.637Z,100824.97
2022-09-12T23:23:36.687Z,100821.09
2022-09-12T23:26:06.131Z,100835.00
2022-09-12T23:28:32.694Z,100826.63
2022-09-12T23:31:00.332Z,100824.72
2022-09-12T23:33:31.086Z,100818.03
2022-09-12T23:36:02.249Z,100817.19
2022-09-12T23:38:32.619Z,100823.63
2022-09-12T23:40:59.927Z,100818.25
2022-09-12T23:43:26.936Z,100826.69
2022-09-12T23:45:53.370Z,100824.00
2022-09-12T23:48:20.284Z,100823.53
2022-09-12T23:50:47.561Z,100814.59
2022-09-12T23:53:15.312Z,100821.06
2022-09-12T23:55:42.468Z,100811.44
2022-09-12T23:58:09.194Z,100814.00
